sensor_id;sensor_type;location;lat;lon;timestamp;pressure;altitude;pressure_sealevel;temperature;humidity
73700;BME280;62005;50.082;8.988;2022-08-25T00:00:20;100494.34;;;23.96;48.49
73700;BME280;62005;50.082;8.988;2022-08-25T00:02:46;100521.69;;;24.11;48.47
73700;BME280;62005;50.082;8.988;2022-08-25T00:05:11;100500.91;;;24.00;48.16
73700;BME280;62005;50.082;8.988;2022-08-25T00:07:37;100521.16;;;24.09;48.78
73700;BME280;62005;50.082;8.988;2022-08-25T00:10:04;100529.75;;;24.07;47.83
73700;BME280;62005;50.082;8.988;2022-08-25T00:12:30;100500.59;;;23.88;48.66
73700;BME280;62005;50.082;8.988;2022-08-25T00:14:55;100495.84;;;23.88;48.53
73700;BME280;62005;50.082;8.988;2022-08-25T00:17:21;100495.69;;;23.85;49.00
73700;BME280;62005;50.082;8.988;2022-08-25T00:19:46;100503.88;;;23.90;48.62
73700;BME280;62005;50.082;8.988;2022-08-25T00:22:11;100511.84;;;23.91;48.72
73700;BME280;62005;50.082;8.988;2022-08-25T00:24:37;100487.09;;;23.73;48.81
73700;BME280;62005;50.082;8.988;2022-08-25T00:27:02;100520.44;;;23.90;48.89
73700;BME280;62005;50.082;8.988;2022-08-25T00:29:29;100518.34;;;23.82;48.75
73700;BME280;62005;50.082;8.988;2022-08-25T00:31:55;100515.22;;;23.75;49.24
73700;BME280;62005;50.082;8.988;2022-08-25T00:34:25;100515.78;;;23.72;49.25
73700;BME280;62005;50.082;8.988;2022-08-25T00:36:51;100489.50;;;23.47;49.17
73700;BME280;62005;50.082;8.988;2022-08-25T00:39:18;100502.59;;;23.55;49.79
73700;BME280;62005;50.082;8.988;2022-08-25T00:41:45;100482.31;;;23.33;49.38
73700;BME280;62005;50.082;8.988;2022-08-25T00:44:13;100513.22;;;23.48;50.01
73700;BME280;62005;50.082;8.988;2022-08-25T00:46:53;100511.38;;;23.44;50.21
73700;BME280;62005;50.082;8.988;2022-08-25T00:49:39;100465.72;;;23.05;50.36
73700;BME280;62005;50.082;8.988;2022-08-25T00:52:27;100509.28;;;23.22;50.31
73700;BME280;62005;50.082;8.988;2022-08-25T00:54:56;100507.41;;;23.17;50.91
73700;BME280;62005;50.082;8.988;2022-08-25T00:57:27;100499.00;;;23.09;50.92
73700;BME280;62005;50.082;8.988;2022-08-25T00:59:54;100504.31;;;23.05;50.81
73700;BME280;62005;50.082;8.988;2022-08-25T01:02:19;100511.97;;;23.08;50.51
73700;BME280;62005;50.082;8.988;2022-08-25T01:04:45;100495.06;;;22.96;51.12
73700;BME280;62005;50.082;8.988;2022-08-25T01:07:11;100485.44;;;22.80;51.44
73700;BME280;62005;50.082;8.988;2022-08-25T01:09:38;100505.66;;;22.89;51.52
73700;BME280;62005;50.082;8.988;2022-08-25T01:12:04;100498.09;;;22.81;51.68
73700;BME280;62005;50.082;8.988;2022-08-25T01:14:31;100503.00;;;22.84;51.55
73700;BME280;62005;50.082;8.988;2022-08-25T01:16:58;100512.38;;;22.83;52.34
73700;BME280;62005;50.082;8.988;2022-08-25T01:19:26;100503.16;;;22.74;51.48
73700;BME280;62005;50.082;8.988;2022-08-25T01:21:52;100503.66;;;22.76;51.74
73700;BME280;62005;50.082;8.988;2022-08-25T01:24:36;100508.66;;;22.74;52.53
73700;BME280;62005;50.082;8.988;2022-08-25T01:27:03;100509.34;;;22.66;52.44
73700;BME280;62005;50.082;8.988;2022-08-25T01:29:29;100513.53;;;22.64;52.11
73700;BME280;62005;50.082;8.988;2022-08-25T01:31:58;100509.94;;;22.63;52.59
73700;BME280;62005;50.082;8.988;2022-08-25T01:34:25;100505.09;;;22.55;52.54
73700;BME280;62005;50.082;8.988;2022-08-25T01:36:52;100508.69;;;22.56;52.54
73700;BME280;62005;50.082;8.988;2022-08-25T01:39:27;100512.59;;;22.50;52.74
73700;BME280;62005;50.082;8.988;2022-08-25T01:42:17;100509.09;;;22.44;53.63
73700;BME280;62005;50.082;8.988;2022-08-25T01:44:44;100502.91;;;22.34;53.12
73700;BME280;62005;50.082;8.988;2022-08-25T01:47:11;100488.06;;;22.11;53.70
73700;BME280;62005;50.082;8.988;2022-08-25T01:49:36;100517.56;;;22.29;53.61
73700;BME280;62005;50.082;8.988;2022-08-25T01:52:10;100521.44;;;22.28;54.18
73700;BME280;62005;50.082;8.988;2022-08-25T01:54:37;100475.31;;;21.96;53.76
73700;BME280;62005;50.082;8.988;2022-08-25T01:57:02;100524.84;;;22.20;54.40
73700;BME280;62005;50.082;8.988;2022-08-25T01:59:28;100518.88;;;22.13;54.01
73700;BME280;62005;50.082;8.988;2022-08-25T02:01:54;100526.56;;;22.16;53.98
73700;BME280;62005;50.082;8.988;2022-08-25T02:04:19;100523.94;;;22.06;54.25
73700;BME280;62005;50.082;8.988;2022-08-25T02:06:44;100513.06;;;21.96;54.59
73700;BME280;62005;50.082;8.988;2022-08-25T02:09:14;100519.34;;;21.96;55.09
73700;BME280;62005;50.082;8.988;2022-08-25T02:11:41;100466.66;;;21.61;54.28
73700;BME280;62005;50.082;8.988;2022-08-25T02:14:09;100523.34;;;21.85;55.22
73700;BME280;62005;50.082;8.988;2022-08-25T02:16:37;100514.38;;;21.75;55.26
73700;BME280;62005;50.082;8.988;2022-08-25T02:19:06;100504.56;;;21.64;55.35
73700;BME280;62005;50.082;8.988;2022-08-25T02:21:32;100521.25;;;21.77;54.90
73700;BME280;62005;50.082;8.988;2022-08-25T02:23:57;100521.56;;;21.71;55.46
73700;BME280;62005;50.082;8.988;2022-08-25T02:26:23;100515.81;;;21.67;56.03
73700;BME280;62005;50.082;8.988;2022-08-25T02:28:49;100508.44;;;21.63;54.81
73700;BME280;62005;50.082;8.988;2022-08-25T02:31:16;100529.88;;;21.66;55.42
73700;BME280;62005;50.082;8.988;2022-08-25T02:33:42;100529.88;;;21.66;54.75
73700;BME280;62005;50.082;8.988;2022-08-25T02:36:08;100518.16;;;21.55;55.31
73700;BME280;62005;50.082;8.988;2022-08-25T02:38:35;100520.59;;;21.57;55.95
73700;BME280;62005;50.082;8.988;2022-08-25T02:41:06;100528.34;;;21.55;55.69
73700;BME280;62005;50.082;8.988;2022-08-25T02:43:33;100517.78;;;21.38;56.22
73700;BME280;62005;50.082;8.988;2022-08-25T02:45:58;100521.88;;;21.41;56.11
73700;BME280;62005;50.082;8.988;2022-08-25T02:48:24;100521.38;;;21.34;56.79
73700;BME280;62005;50.082;8.988;2022-08-25T02:50:51;100525.56;;;21.31;56.92
73700;BME280;62005;50.082;8.988;2022-08-25T02:53:19;100516.47;;;21.31;56.14
73700;BME280;62005;50.082;8.988;2022-08-25T02:55:44;100526.34;;;21.37;55.92
73700;BME280;62005;50.082;8.988;2022-08-25T02:58:10;100509.38;;;21.25;56.23
73700;BME280;62005;50.082;8.988;2022-08-25T03:00:36;100488.69;;;21.04;56.50
73700;BME280;62005;50.082;8.988;2022-08-25T03:03:02;100485.16;;;20.93;57.35
73700;BME280;62005;50.082;8.988;2022-08-25T03:05:27;100490.47;;;20.85;57.27
73700;BME280;62005;50.082;8.988;2022-08-25T03:07:53;100526.94;;;21.00;57.57
73700;BME280;62005;50.082;8.988;2022-08-25T03:10:18;100490.50;;;20.80;57.37
73700;BME280;62005;50.082;8.988;2022-08-25T03:12:45;100495.94;;;20.85;57.00
73700;BME280;62005;50.082;8.988;2022-08-25T03:15:12;100519.53;;;20.96;57.56
73700;BME280;62005;50.082;8.988;2022-08-25T03:17:41;100513.84;;;20.82;57.23
73700;BME280;62005;50.082;8.988;2022-08-25T03:20:07;100513.53;;;20.89;58.01
73700;BME280;62005;50.082;8.988;2022-08-25T03:22:33;100472.00;;;20.56;57.87
73700;BME280;62005;50.082;8.988;2022-08-25T03:24:59;100514.66;;;20.83;56.69
73700;BME280;62005;50.082;8.988;2022-08-25T03:27:43;100513.03;;;20.82;56.67
73700;BME280;62005;50.082;8.988;2022-08-25T03:30:09;100517.94;;;20.85;57.81
73700;BME280;62005;50.082;8.988;2022-08-25T03:32:35;100462.19;;;20.45;58.05
73700;BME280;62005;50.082;8.988;2022-08-25T03:35:00;100501.59;;;20.64;57.99
73700;BME280;62005;50.082;8.988;2022-08-25T03:37:26;100508.25;;;20.58;58.79
73700;BME280;62005;50.082;8.988;2022-08-25T03:39:51;100501.19;;;20.47;59.13
73700;BME280;62005;50.082;8.988;2022-08-25T03:42:17;100475.53;;;20.18;58.78
73700;BME280;62005;50.082;8.988;2022-08-25T03:44:42;100504.81;;;20.33;59.21
73700;BME280;62005;50.082;8.988;2022-08-25T03:47:08;100495.28;;;20.20;59.81
73700;BME280;62005;50.082;8.988;2022-08-25T03:49:33;100512.03;;;20.24;59.48
73700;BME280;62005;50.082;8.988;2022-08-25T03:51:59;100479.97;;;20.04;59.66
73700;BME280;62005;50.082;8.988;2022-08-25T03:54:25;100498.59;;;20.12;59.76
73700;BME280;62005;50.082;8.988;2022-08-25T03:56:51;100504.38;;;20.11;59.69
73700;BME280;62005;50.082;8.988;2022-08-25T03:59:16;100495.91;;;19.97;60.09
73700;BME280;62005;50.082;8.988;2022-08-25T04:01:44;100517.28;;;20.05;60.46
73700;BME280;62005;50.082;8.988;2022-08-25T04:04:13;100512.91;;;20.04;60.82
73700;BME280;62005;50.082;8.988;2022-08-25T04:06:40;100512.13;;;19.94;61.00
73700;BME280;62005;50.082;8.988;2022-08-25T04:09:05;100515.69;;;19.94;61.18
73700;BME280;62005;50.082;8.988;2022-08-25T04:11:31;100474.09;;;19.67;61.19
73700;BME280;62005;50.082;8.988;2022-08-25T04:13:59;100514.59;;;19.95;60.71
73700;BME280;62005;50.082;8.988;2022-08-25T04:16:27;100516.25;;;19.96;60.63
73700;BME280;62005;50.082;8.988;2022-08-25T04:18:58;100489.16;;;19.80;61.61
73700;BME280;62005;50.082;8.988;2022-08-25T04:21:24;100492.16;;;19.83;60.46
73700;BME280;62005;50.082;8.988;2022-08-25T04:23:51;100494.31;;;19.86;61.27
73700;BME280;62005;50.082;8.988;2022-08-25T04:26:31;100454.91;;;19.62;60.79
73700;BME280;62005;50.082;8.988;2022-08-25T04:28:59;100489.41;;;19.83;60.88
73700;BME280;62005;50.082;8.988;2022-08-25T04:31:26;100486.69;;;19.78;61.17
73700;BME280;62005;50.082;8.988;2022-08-25T04:33:52;100469.16;;;19.64;61.14
73700;BME280;62005;50.082;8.988;2022-08-25T04:36:18;100487.78;;;19.72;61.53
73700;BME280;62005;50.082;8.988;2022-08-25T04:38:45;100472.47;;;19.56;61.68
73700;BME280;62005;50.082;8.988;2022-08-25T04:41:12;100488.38;;;19.59;62.15
73700;BME280;62005;50.082;8.988;2022-08-25T04:43:41;100467.56;;;19.48;62.10
73700;BME280;62005;50.082;8.988;2022-08-25T04:46:09;100488.94;;;19.61;62.79
73700;BME280;62005;50.082;8.988;2022-08-25T04:48:39;100473.06;;;19.48;62.23
73700;BME280;62005;50.082;8.988;2022-08-25T04:51:06;100471.13;;;19.48;60.77
73700;BME280;62005;50.082;8.988;2022-08-25T04:53:32;100500.41;;;19.73;60.54
73700;BME280;62005;50.082;8.988;2022-08-25T04:55:58;100471.91;;;19.59;60.64
73700;BME280;62005;50.082;8.988;2022-08-25T04:58:23;100467.00;;;19.56;61.42
73700;BME280;62005;50.082;8.988;2022-08-25T05:00:50;100503.16;;;19.78;61.67
73700;BME280;62005;50.082;8.988;2022-08-25T05:03:16;100495.44;;;19.80;61.22
73700;BME280;62005;50.082;8.988;2022-08-25T05:05:41;100477.38;;;19.69;61.18
73700;BME280;62005;50.082;8.988;2022-08-25T05:08:09;100494.06;;;19.83;61.26
73700;BME280;62005;50.082;8.988;2022-08-25T05:10:38;100480.09;;;19.79;61.07
73700;BME280;62005;50.082;8.988;2022-08-25T05:13:04;100493.75;;;19.89;61.93
73700;BME280;62005;50.082;8.988;2022-08-25T05:15:29;100488.81;;;19.91;62.57
73700;BME280;62005;50.082;8.988;2022-08-25T05:18:15;100495.31;;;20.10;61.99
73700;BME280;62005;50.082;8.988;2022-08-25T05:20:40;100508.16;;;20.25;62.80
73700;BME280;62005;50.082;8.988;2022-08-25T05:23:05;100495.75;;;20.37;61.14
73700;BME280;62005;50.082;8.988;2022-08-25T05:25:31;100501.66;;;20.54;61.44
73700;BME280;62005;50.082;8.988;2022-08-25T05:27:57;100479.69;;;20.54;61.55
73700;BME280;62005;50.082;8.988;2022-08-25T05:30:22;100467.91;;;20.54;60.75
73700;BME280;62005;50.082;8.988;2022-08-25T05:32:48;100483.91;;;20.81;61.10
73700;BME280;62005;50.082;8.988;2022-08-25T05:35:13;100482.16;;;20.90;61.35
73700;BME280;62005;50.082;8.988;2022-08-25T05:37:40;100506.06;;;21.28;61.67
73700;BME280;62005;50.082;8.988;2022-08-25T05:40:08;100471.31;;;21.37;61.77
73700;BME280;62005;50.082;8.988;2022-08-25T05:42:34;100497.34;;;21.96;60.85
73700;BME280;62005;50.082;8.988;2022-08-25T05:45:03;100488.59;;;22.32;61.56
73700;BME280;62005;50.082;8.988;2022-08-25T05:47:29;100470.41;;;22.54;60.57
73700;BME280;62005;50.082;8.988;2022-08-25T05:49:54;100471.56;;;22.85;60.26
73700;BME280;62005;50.082;8.988;2022-08-25T05:52:20;100460.78;;;23.02;59.55
73700;BME280;62005;50.082;8.988;2022-08-25T05:54:46;100445.91;;;23.17;58.08
73700;BME280;62005;50.082;8.988;2022-08-25T05:57:12;100456.59;;;23.51;56.92
73700;BME280;62005;50.082;8.988;2022-08-25T05:59:38;100413.06;;;23.48;56.89
73700;BME280;62005;50.082;8.988;2022-08-25T06:02:05;100480.97;;;24.03;56.01
73700;BME280;62005;50.082;8.988;2022-08-25T06:04:48;100471.09;;;24.24;55.75
73700;BME280;62005;50.082;8.988;2022-08-25T06:07:14;100431.16;;;24.08;54.86
73700;BME280;62005;50.082;8.988;2022-08-25T06:09:41;100430.78;;;24.23;54.25
73700;BME280;62005;50.082;8.988;2022-08-25T06:12:10;100421.03;;;24.39;54.18
73700;BME280;62005;50.082;8.988;2022-08-25T06:14:36;100456.38;;;24.86;53.67
73700;BME280;62005;50.082;8.988;2022-08-25T06:17:01;100414.25;;;24.89;52.84
73700;BME280;62005;50.082;8.988;2022-08-25T06:19:30;100468.84;;;25.58;52.06
73700;BME280;62005;50.082;8.988;2022-08-25T06:21:57;100416.81;;;25.78;51.07
73700;BME280;62005;50.082;8.988;2022-08-25T06:24:27;100430.47;;;26.39;50.08
73700;BME280;62005;50.082;8.988;2022-08-25T06:26:52;100462.25;;;27.01;49.46
73700;BME280;62005;50.082;8.988;2022-08-25T06:29:18;100462.16;;;27.44;48.58
73700;BME280;62005;50.082;8.988;2022-08-25T06:31:45;100455.31;;;27.79;48.07
73700;BME280;62005;50.082;8.988;2022-08-25T06:34:11;100434.66;;;27.88;47.41
73700;BME280;62005;50.082;8.988;2022-08-25T06:36:38;100454.72;;;28.02;47.15
73700;BME280;62005;50.082;8.988;2022-08-25T06:39:03;100418.00;;;27.59;47.68
73700;BME280;62005;50.082;8.988;2022-08-25T06:41:30;100458.81;;;27.67;47.55
73700;BME280;62005;50.082;8.988;2022-08-25T06:43:56;100433.59;;;27.43;47.97
73700;BME280;62005;50.082;8.988;2022-08-25T06:46:24;100455.25;;;27.58;47.52
73700;BME280;62005;50.082;8.988;2022-08-25T06:48:54;100448.66;;;27.71;47.69
73700;BME280;62005;50.082;8.988;2022-08-25T06:51:21;100453.94;;;27.93;47.70
73700;BME280;62005;50.082;8.988;2022-08-25T06:53:48;100439.66;;;28.03;47.07
73700;BME280;62005;50.082;8.988;2022-08-25T06:56:14;100439.97;;;28.10;47.14
73700;BME280;62005;50.082;8.988;2022-08-25T06:58:40;100448.09;;;28.15;46.26
73700;BME280;62005;50.082;8.988;2022-08-25T07:01:12;100454.88;;;28.27;46.56
73700;BME280;62005;50.082;8.988;2022-08-25T07:03:38;100426.47;;;28.21;46.03
73700;BME280;62005;50.082;8.988;2022-08-25T07:06:03;100451.34;;;28.38;45.52
73700;BME280;62005;50.082;8.988;2022-08-25T07:08:29;100459.66;;;28.47;45.62
73700;BME280;62005;50.082;8.988;2022-08-25T07:10:55;100443.16;;;28.42;45.22
73700;BME280;62005;50.082;8.988;2022-08-25T07:13:20;100422.47;;;28.31;46.06
73700;BME280;62005;50.082;8.988;2022-08-25T07:15:46;100443.94;;;28.51;45.16
73700;BME280;62005;50.082;8.988;2022-08-25T07:18:11;100452.09;;;28.56;45.38
73700;BME280;62005;50.082;8.988;2022-08-25T07:20:38;100459.81;;;28.71;45.70
73700;BME280;62005;50.082;8.988;2022-08-25T07:23:05;100459.91;;;28.95;45.57
73700;BME280;62005;50.082;8.988;2022-08-25T07:25:31;100439.31;;;29.08;45.15
73700;BME280;62005;50.082;8.988;2022-08-25T07:27:58;100426.13;;;29.29;44.14
73700;BME280;62005;50.082;8.988;2022-08-25T07:30:23;100454.03;;;29.53;43.51
73700;BME280;62005;50.082;8.988;2022-08-25T07:32:48;100454.16;;;29.57;43.66
73700;BME280;62005;50.082;8.988;2022-08-25T07:35:13;100445.94;;;29.72;44.35
73700;BME280;62005;50.082;8.988;2022-08-25T07:37:43;100442.81;;;29.98;43.69
73700;BME280;62005;50.082;8.988;2022-08-25T07:40:14;100442.94;;;30.01;42.92
73700;BME280;62005;50.082;8.988;2022-08-25T07:42:40;100406.47;;;29.94;42.25
73700;BME280;62005;50.082;8.988;2022-08-25T07:45:06;100450.56;;;30.40;42.46
73700;BME280;62005;50.082;8.988;2022-08-25T07:47:32;100450.28;;;30.57;41.57
73700;BME280;62005;50.082;8.988;2022-08-25T07:49:57;100436.25;;;30.70;42.91
73700;BME280;62005;50.082;8.988;2022-08-25T07:52:23;100438.81;;;30.75;41.46
73700;BME280;62005;50.082;8.988;2022-08-25T07:54:48;100434.28;;;30.82;41.73
73700;BME280;62005;50.082;8.988;2022-08-25T07:57:14;100435.28;;;30.90;41.04
73700;BME280;62005;50.082;8.988;2022-08-25T07:59:41;100441.44;;;31.11;41.35
73700;BME280;62005;50.082;8.988;2022-08-25T08:02:08;100437.69;;;31.19;40.46
73700;BME280;62005;50.082;8.988;2022-08-25T08:04:35;100445.09;;;31.27;39.97
73700;BME280;62005;50.082;8.988;2022-08-25T08:07:02;100453.91;;;31.29;40.68
73700;BME280;62005;50.082;8.988;2022-08-25T08:09:27;100426.97;;;31.21;40.25
73700;BME280;62005;50.082;8.988;2022-08-25T08:11:55;100436.22;;;31.37;39.82
73700;BME280;62005;50.082;8.988;2022-08-25T08:14:20;100399.81;;;31.06;39.70
73700;BME280;62005;50.082;8.988;2022-08-25T08:16:46;100420.22;;;31.22;40.24
73700;BME280;62005;50.082;8.988;2022-08-25T08:19:11;100414.63;;;31.22;39.95
73700;BME280;62005;50.082;8.988;2022-08-25T08:21:37;100440.00;;;31.44;39.99
73700;BME280;62005;50.082;8.988;2022-08-25T08:24:03;100424.63;;;31.23;39.62
73700;BME280;62005;50.082;8.988;2022-08-25T08:26:28;100415.69;;;31.02;40.29
73700;BME280;62005;50.082;8.988;2022-08-25T08:28:54;100444.69;;;31.13;39.60
73700;BME280;62005;50.082;8.988;2022-08-25T08:31:22;100441.13;;;31.28;40.04
73700;BME280;62005;50.082;8.988;2022-08-25T08:33:48;100386.50;;;31.15;39.22
73700;BME280;62005;50.082;8.988;2022-08-25T08:36:16;100436.00;;;31.45;39.87
73700;BME280;62005;50.082;8.988;2022-08-25T08:38:43;100416.25;;;31.23;38.86
73700;BME280;62005;50.082;8.988;2022-08-25T08:47:15;100440.75;;;31.14;39.37
73700;BME280;62005;50.082;8.988;2022-08-25T08:50:20;100422.56;;;31.20;39.29
73700;BME280;62005;50.082;8.988;2022-08-25T08:52:50;100421.47;;;31.09;39.17
73700;BME280;62005;50.082;8.988;2022-08-25T08:56:00;100423.06;;;31.10;39.76
73700;BME280;62005;50.082;8.988;2022-08-25T08:58:16;100414.75;;;30.82;38.62
73700;BME280;62005;50.082;8.988;2022-08-25T09:00:49;100386.75;;;30.67;39.35
73700;BME280;62005;50.082;8.988;2022-08-25T09:05:53;100408.34;;;30.70;38.33
73700;BME280;62005;50.082;8.988;2022-08-25T09:08:20;100386.13;;;30.45;39.13
73700;BME280;62005;50.082;8.988;2022-08-25T09:11:10;100415.53;;;30.83;39.46
73700;BME280;62005;50.082;8.988;2022-08-25T09:16:29;100405.31;;;30.75;39.42
73700;BME280;62005;50.082;8.988;2022-08-25T09:22:14;100377.81;;;30.33;39.50
73700;BME280;62005;50.082;8.988;2022-08-25T09:24:56;100400.72;;;30.27;39.59
73700;BME280;62005;50.082;8.988;2022-08-25T09:30:11;100384.31;;;30.37;39.67
73700;BME280;62005;50.082;8.988;2022-08-25T09:32:41;100366.22;;;30.19;38.74
73700;BME280;62005;50.082;8.988;2022-08-25T09:35:16;100383.88;;;30.23;39.58
73700;BME280;62005;50.082;8.988;2022-08-25T09:37:42;100395.16;;;30.27;39.52
73700;BME280;62005;50.082;8.988;2022-08-25T09:40:08;100371.56;;;30.12;39.89
73700;BME280;62005;50.082;8.988;2022-08-25T09:42:51;100395.03;;;30.23;39.50
73700;BME280;62005;50.082;8.988;2022-08-25T09:45:31;100376.69;;;30.22;39.74
73700;BME280;62005;50.082;8.988;2022-08-25T09:47:58;100358.56;;;30.16;39.65
73700;BME280;62005;50.082;8.988;2022-08-25T09:50:23;100378.91;;;30.44;38.68
73700;BME280;62005;50.082;8.988;2022-08-25T09:52:49;100358.94;;;30.42;38.69
73700;BME280;62005;50.082;8.988;2022-08-25T09:55:25;100354.09;;;30.39;37.76
73700;BME280;62005;50.082;8.988;2022-08-25T09:57:53;100356.81;;;30.51;38.23
73700;BME280;62005;50.082;8.988;2022-08-25T10:00:32;100359.13;;;30.49;38.22
73700;BME280;62005;50.082;8.988;2022-08-25T10:03:13;100353.66;;;30.25;38.42
73700;BME280;62005;50.082;8.988;2022-08-25T10:06:35;100353.41;;;30.30;39.80
73700;BME280;62005;50.082;8.988;2022-08-25T10:08:51;100319.75;;;30.11;38.63
73700;BME280;62005;50.082;8.988;2022-08-25T10:11:39;100321.38;;;30.12;39.09
73700;BME280;62005;50.082;8.988;2022-08-25T10:16:42;100325.75;;;30.25;38.39
73700;BME280;62005;50.082;8.988;2022-08-25T10:19:11;100298.59;;;30.22;38.17
73700;BME280;62005;50.082;8.988;2022-08-25T10:21:39;100308.31;;;30.28;37.70
73700;BME280;62005;50.082;8.988;2022-08-25T10:24:07;100311.16;;;30.04;38.41
73700;BME280;62005;50.082;8.988;2022-08-25T10:31:34;100322.50;;;30.23;38.31
73700;BME280;62005;50.082;8.988;2022-08-25T10:36:52;100312.75;;;30.29;38.12
73700;BME280;62005;50.082;8.988;2022-08-25T10:39:45;100272.16;;;29.92;38.04
73700;BME280;62005;50.082;8.988;2022-08-25T10:42:29;100276.03;;;30.15;38.20
73700;BME280;62005;50.082;8.988;2022-08-25T10:53:54;100289.00;;;30.79;37.67
73700;BME280;62005;50.082;8.988;2022-08-25T10:56:34;100282.00;;;30.73;37.68
73700;BME280;62005;50.082;8.988;2022-08-25T11:06:54;100280.19;;;30.21;38.70
73700;BME280;62005;50.082;8.988;2022-08-25T11:09:28;100257.22;;;30.12;37.89
73700;BME280;62005;50.082;8.988;2022-08-25T11:12:54;100273.75;;;30.05;37.75
73700;BME280;62005;50.082;8.988;2022-08-25T11:15:00;100274.72;;;29.97;37.68
73700;BME280;62005;50.082;8.988;2022-08-25T11:17:42;100221.84;;;29.61;38.24
73700;BME280;62005;50.082;8.988;2022-08-25T11:20:15;100271.00;;;29.93;38.62
73700;BME280;62005;50.082;8.988;2022-08-25T11:22:45;100265.72;;;30.04;37.09
73700;BME280;62005;50.082;8.988;2022-08-25T11:25:33;100267.31;;;30.17;35.96
73700;BME280;62005;50.082;8.988;2022-08-25T11:28:05;100264.41;;;30.25;35.29
73700;BME280;62005;50.082;8.988;2022-08-25T11:30:32;100241.56;;;30.08;36.46
73700;BME280;62005;50.082;8.988;2022-08-25T11:32:57;100250.44;;;30.25;35.98
73700;BME280;62005;50.082;8.988;2022-08-25T11:35:28;100250.66;;;30.20;35.52
73700;BME280;62005;50.082;8.988;2022-08-25T11:40:31;100258.59;;;30.46;36.94
73700;BME280;62005;50.082;8.988;2022-08-25T11:46:30;100241.78;;;30.74;35.79
73700;BME280;62005;50.082;8.988;2022-08-25T11:51:50;100220.00;;;30.95;35.74
73700;BME280;62005;50.082;8.988;2022-08-25T11:54:23;100245.19;;;31.29;35.43
73700;BME280;62005;50.082;8.988;2022-08-25T11:57:22;100236.91;;;31.33;34.97
73700;BME280;62005;50.082;8.988;2022-08-25T12:02:32;100242.94;;;31.19;33.63
73700;BME280;62005;50.082;8.988;2022-08-25T12:04:59;100204.16;;;30.99;34.66
73700;BME280;62005;50.082;8.988;2022-08-25T12:07:28;100238.00;;;31.13;34.34
73700;BME280;62005;50.082;8.988;2022-08-25T12:18:17;100231.69;;;31.16;32.80
73700;BME280;62005;50.082;8.988;2022-08-25T12:23:45;100216.75;;;30.93;33.94
73700;BME280;62005;50.082;8.988;2022-08-25T12:32:22;100218.72;;;30.77;34.02
73700;BME280;62005;50.082;8.988;2022-08-25T12:37:20;100194.22;;;30.54;34.37
73700;BME280;62005;50.082;8.988;2022-08-25T12:45:11;100223.34;;;30.69;35.04
73700;BME280;62005;50.082;8.988;2022-08-25T12:47:42;100211.16;;;30.61;35.73
73700;BME280;62005;50.082;8.988;2022-08-25T12:52:58;100224.22;;;30.57;36.02
73700;BME280;62005;50.082;8.988;2022-08-25T12:55:28;100215.94;;;30.45;35.34
73700;BME280;62005;50.082;8.988;2022-08-25T12:57:54;100198.53;;;30.36;35.99
73700;BME280;62005;50.082;8.988;2022-08-25T13:00:34;100213.13;;;30.45;36.61
73700;BME280;62005;50.082;8.988;2022-08-25T13:10:51;100168.16;;;30.63;35.15
73700;BME280;62005;50.082;8.988;2022-08-25T13:13:59;100180.72;;;30.88;34.49
73700;BME280;62005;50.082;8.988;2022-08-25T13:16:28;100178.28;;;31.02;34.71
73700;BME280;62005;50.082;8.988;2022-08-25T13:18:55;100192.44;;;31.09;34.33
73700;BME280;62005;50.082;8.988;2022-08-25T13:21:34;100164.31;;;31.02;33.49
73700;BME280;62005;50.082;8.988;2022-08-25T13:24:01;100147.41;;;30.95;34.78
73700;BME280;62005;50.082;8.988;2022-08-25T13:26:36;100167.88;;;31.18;34.09
73700;BME280;62005;50.082;8.988;2022-08-25T13:29:13;100145.50;;;30.99;33.57
73700;BME280;62005;50.082;8.988;2022-08-25T13:34:26;100149.91;;;31.00;34.07
73700;BME280;62005;50.082;8.988;2022-08-25T13:36:52;100151.38;;;30.94;33.74
73700;BME280;62005;50.082;8.988;2022-08-25T13:39:36;100169.75;;;30.95;34.69
73700;BME280;62005;50.082;8.988;2022-08-25T13:42:04;100160.59;;;30.79;34.71
73700;BME280;62005;50.082;8.988;2022-08-25T13:44:35;100153.91;;;30.68;35.17
73700;BME280;62005;50.082;8.988;2022-08-25T13:47:14;100148.69;;;30.50;35.20
73700;BME280;62005;50.082;8.988;2022-08-25T13:49:43;100170.47;;;30.60;35.51
73700;BME280;62005;50.082;8.988;2022-08-25T13:52:26;100143.84;;;30.47;35.78
73700;BME280;62005;50.082;8.988;2022-08-25T13:54:57;100137.34;;;30.43;35.57
73700;BME280;62005;50.082;8.988;2022-08-25T13:57:26;100154.28;;;30.50;36.05
73700;BME280;62005;50.082;8.988;2022-08-25T13:59:55;100135.56;;;30.35;35.44
73700;BME280;62005;50.082;8.988;2022-08-25T14:02:43;100154.28;;;30.50;35.36
73700;BME280;62005;50.082;8.988;2022-08-25T14:05:10;100111.44;;;30.27;35.62
73700;BME280;62005;50.082;8.988;2022-08-25T14:07:38;100151.22;;;30.55;35.86
73700;BME280;62005;50.082;8.988;2022-08-25T14:13:29;100114.59;;;30.26;34.90
73700;BME280;62005;50.082;8.988;2022-08-25T14:16:05;100112.16;;;30.24;35.01
73700;BME280;62005;50.082;8.988;2022-08-25T14:18:31;100127.94;;;30.20;34.77
73700;BME280;62005;50.082;8.988;2022-08-25T14:20:57;100135.56;;;30.35;34.42
73700;BME280;62005;50.082;8.988;2022-08-25T14:23:27;100140.31;;;30.35;33.65
73700;BME280;62005;50.082;8.988;2022-08-25T14:25:55;100115.91;;;30.16;33.59
73700;BME280;62005;50.082;8.988;2022-08-25T14:28:24;100116.50;;;30.10;34.46
73700;BME280;62005;50.082;8.988;2022-08-25T14:31:15;100149.75;;;30.30;34.12
73700;BME280;62005;50.082;8.988;2022-08-25T14:34:05;100128.91;;;30.24;34.16
73700;BME280;62005;50.082;8.988;2022-08-25T14:36:32;100130.59;;;30.29;34.52
73700;BME280;62005;50.082;8.988;2022-08-25T14:38:58;100137.88;;;30.33;34.24